Terminal Aerodrome Forecast
Issued by NWS

Home | Current Version | Previous Version | Text Only | Print | Product List | Glossary On
Versions: 1 2 3 4 5 6 7 8 9 10 11 12
155
FTPA31 PHFO 221100
TAFOGG
TAF
PHOG 221136Z 2212/2312 13005KT P6SM FEW040
     FM222000 35010KT P6SM FEW040 SCT060
     FM230500 VRB04KT P6SM SCT035 BKN050
      AMD LTD TO VIS AND WIND TIL 221600=

USA.gov is the U.S. government's official web portal to all federal, state and local government web resources and services.